Time;durP1;ratioP1;P1;durP2;ratioP2;P2;SDS_P1;SDS_P2;PMS_P1;PMS_P2;Temp;Humidity;BMP_temperature;BMP_pressure;BME280_temperature;BME280_humidity;BME280_pressure;Samples;Min_cycle;Max_cycle;Signal;HPM_P1;HPM_P2
2022/01/06 00:00:24;;;;;;;21.85;15.83;;;;;;;12.04;100.00;99099.64;1689081;83;23030;-72
2022/01/06 00:02:51;;;;;;;25.43;16.02;;;;;;;12.06;100.00;99103.64;1691017;84;21018;-72
2022/01/06 00:05:17;;;;;;;20.67;14.73;;;;;;;12.08;100.00;99104.70;1707060;83;20973;-72
2022/01/06 00:07:49;;;;;;;21.62;14.70;;;;;;;12.08;100.00;99100.79;1669206;85;21325;-71
2022/01/06 00:10:17;;;;;;;21.47;14.87;;;;;;;12.62;100.00;99106.89;1683632;83;22177;-72
2022/01/06 00:15:41;;;;;;;22.43;14.93;;;;;;;12.90;100.00;99101.80;1704139;83;21270;-72
2022/01/06 00:17:52;;;;;;;23.60;14.77;;;;;;;12.45;100.00;99100.19;1695712;83;21179;-73
2022/01/06 00:25:40;;;;;;;19.60;13.27;;;;;;;12.67;100.00;99109.63;1701395;83;21549;-71
2022/01/06 00:28:07;;;;;;;22.45;14.53;;;;;;;12.83;100.00;99097.19;1704034;83;21896;-72
2022/01/06 00:30:35;;;;;;;22.03;15.63;;;;;;;12.93;100.00;99094.55;1706157;83;21115;-72
2022/01/06 00:33:03;;;;;;;23.10;15.47;;;;;;;13.04;100.00;99080.67;1666821;85;21367;-71
2022/01/06 00:35:30;;;;;;;20.03;14.23;;;;;;;13.15;100.00;99085.91;1704597;83;22396;-72
2022/01/06 00:37:57;;;;;;;22.80;14.67;;;;;;;13.41;100.00;99101.37;1703288;83;21610;-71
2022/01/06 00:40:24;;;;;;;22.63;15.27;;;;;;;13.39;100.00;99113.39;1706968;83;21363;-72
2022/01/06 00:42:54;;;;;;;21.67;15.97;;;;;;;13.25;100.00;99105.48;1706057;83;21304;-72
2022/01/06 00:45:21;;;;;;;20.57;14.53;;;;;;;13.31;100.00;99100.66;1697705;83;21267;-72
2022/01/06 00:47:47;;;;;;;25.03;15.60;;;;;;;13.17;100.00;99111.83;1706874;83;21301;-69
2022/01/06 00:50:14;;;;;;;23.50;14.67;;;;;;;13.24;100.00;99109.13;1704617;83;21197;-69
2022/01/06 00:52:41;;;;;;;23.67;16.67;;;;;;;13.21;100.00;99105.62;1706801;83;21329;-72
2022/01/06 00:55:08;;;;;;;25.63;16.13;;;;;;;13.15;100.00;99099.50;1703822;83;21364;-72
2022/01/06 00:57:35;;;;;;;25.85;15.28;;;;;;;13.39;100.00;99091.94;1705572;83;21160;-73
2022/01/06 01:00:05;;;;;;;26.60;16.00;;;;;;;13.44;100.00;99089.14;1704649;83;21136;-72
2022/01/06 01:02:31;;;;;;;26.43;17.00;;;;;;;13.33;100.00;99091.56;1683196;83;21152;-72
2022/01/06 01:05:00;;;;;;;22.60;16.17;;;;;;;13.21;100.00;99087.31;1704743;82;21877;-71
2022/01/06 01:07:26;;;;;;;23.52;16.25;;;;;;;13.14;100.00;99090.03;1705991;83;21078;-72
2022/01/06 01:09:54;;;;;;;23.47;15.37;;;;;;;13.49;100.00;99080.10;1704142;83;21006;-72
2022/01/06 01:12:24;;;;;;;22.40;15.70;;;;;;;13.37;100.00;99086.15;1718556;82;22083;-69
2022/01/06 01:14:57;;;;;;;27.97;17.03;;;;;;;13.34;100.00;99083.98;1694197;83;21343;-71
2022/01/06 01:17:24;;;;;;;27.60;16.13;;;;;;;13.44;100.00;99100.91;1685376;83;22628;-72
2022/01/06 01:19:50;;;;;;;24.17;15.13;;;;;;;13.67;100.00;99102.70;1692604;84;20959;-72
2022/01/06 01:22:16;;;;;;;25.40;15.83;;;;;;;13.60;100.00;99103.64;1695468;83;21756;-69
2022/01/06 01:24:43;;;;;;;27.93;17.90;;;;;;;13.61;100.00;99103.13;1693369;84;21124;-69
2022/01/06 01:27:09;;;;;;;26.07;15.53;;;;;;;13.38;100.00;99104.75;1694293;83;21261;-71
2022/01/06 01:29:45;;;;;;;24.50;14.63;;;;;;;13.48;100.00;99110.69;1706119;83;21264;-71
2022/01/06 01:32:07;;;;;;;27.77;15.97;;;;;;;13.61;100.00;99107.84;1691936;83;21791;-71
2022/01/06 01:34:34;;;;;;;24.90;15.97;;;;;;;13.55;100.00;99111.89;1691246;84;21243;-70
2022/01/06 01:37:00;;;;;;;25.40;16.20;;;;;;;13.73;100.00;99102.58;1696301;83;21337;-69
2022/01/06 01:39:34;;;;;;;26.50;15.70;;;;;;;13.56;100.00;99100.38;1694407;84;21257;-72
2022/01/06 01:42:05;;;;;;;25.37;16.10;;;;;;;13.60;100.00;99106.77;1696103;83;21748;-71
2022/01/06 01:44:35;;;;;;;22.23;15.77;;;;;;;13.46;100.00;99112.77;1706120;83;21206;-70
2022/01/06 01:47:13;;;;;;;24.23;15.83;;;;;;;13.57;100.00;99099.38;1731333;81;21657;-71
2022/01/06 01:49:48;;;;;;;24.43;15.33;;;;;;;13.48;100.00;99092.88;1690658;84;21699;-71
2022/01/06 01:52:02;;;;;;;22.70;15.67;;;;;;;13.53;100.00;99104.79;1695506;83;21135;-71
2022/01/06 01:54:31;;;;;;;23.67;15.77;;;;;;;13.48;100.00;99108.59;1706373;83;21245;-71
2022/01/06 01:57:00;;;;;;;25.52;15.63;;;;;;;13.28;100.00;99097.19;1692607;83;21323;-71
2022/01/06 01:59:26;;;;;;;27.17;16.60;;;;;;;13.20;100.00;99080.49;1690944;84;21113;-71
2022/01/06 02:01:53;;;;;;;21.57;13.73;;;;;;;13.25;100.00;99078.00;1694827;83;21893;-72
2022/01/06 02:04:20;;;;;;;27.33;16.03;;;;;;;13.64;100.00;99072.55;1648323;84;21700;-71
2022/01/06 02:06:46;;;;;;;21.73;14.60;;;;;;;13.67;100.00;99066.83;1665589;85;21083;-69
2022/01/06 02:09:13;;;;;;;25.10;15.20;;;;;;;13.61;100.00;99070.39;1664093;85;21239;-69
2022/01/06 02:11:39;;;;;;;24.30;14.90;;;;;;;13.04;100.00;99068.91;1703764;83;21099;-71
2022/01/06 02:14:07;;;;;;;25.77;15.17;;;;;;;13.05;100.00;99067.87;1663555;85;21558;-70
2022/01/06 02:16:33;;;;;;;25.20;17.27;;;;;;;12.81;100.00;99065.77;1703222;84;21198;-70
2022/01/06 02:19:00;;;;;;;27.47;16.90;;;;;;;13.01;100.00;99066.22;1702100;83;21203;-72
2022/01/06 02:21:28;;;;;;;25.13;16.17;;;;;;;12.98;100.00;99062.75;1664834;85;21135;-71
2022/01/06 02:23:56;;;;;;;26.57;16.90;;;;;;;13.03;100.00;99060.75;1702327;84;22783;-70
2022/01/06 02:26:23;;;;;;;25.97;15.63;;;;;;;13.00;100.00;99053.38;1643334;86;21841;-70
2022/01/06 02:28:51;;;;;;;26.68;17.17;;;;;;;13.30;100.00;99058.51;1652516;85;21221;-72
2022/01/06 02:31:17;;;;;;;25.92;16.90;;;;;;;13.37;100.00;99065.20;1650872;85;21059;-68
2022/01/06 02:33:49;;;;;;;24.97;15.03;;;;;;;13.34;100.00;99057.81;1649740;86;21108;-71
2022/01/06 02:36:17;;;;;;;23.73;15.83;;;;;;;13.48;100.00;99057.03;1650588;86;21424;-70
2022/01/06 02:38:47;;;;;;;27.17;17.80;;;;;;;13.62;100.00;99056.27;1624848;86;22650;-71
2022/01/06 02:41:16;;;;;;;24.20;16.50;;;;;;;13.85;100.00;99054.09;1649614;86;21698;-69
2022/01/06 02:43:43;;;;;;;24.23;15.60;;;;;;;13.86;100.00;99056.48;1653066;85;21744;-71
2022/01/06 02:46:14;;;;;;;23.63;16.40;;;;;;;13.94;100.00;99055.80;1653294;86;22071;-70
2022/01/06 02:48:41;;;;;;;28.90;17.90;;;;;;;13.79;100.00;99068.12;1652156;86;21671;-70
2022/01/06 02:51:07;;;;;;;25.67;17.03;;;;;;;13.88;100.00;99067.51;1650834;86;21157;-71
2022/01/06 02:53:36;;;;;;;25.80;15.93;;;;;;;13.86;100.00;99062.22;1651486;86;21303;-73
2022/01/06 02:56:05;;;;;;;23.10;16.27;;;;;;;13.85;100.00;99055.39;1651510;86;21297;-71
2022/01/06 02:58:32;;;;;;;30.63;17.70;;;;;;;13.90;100.00;99064.65;1652103;86;21889;-69
2022/01/06 03:00:59;;;;;;;26.45;17.75;;;;;;;13.85;100.00;99061.42;1650459;86;21385;-71
2022/01/06 03:03:25;;;;;;;26.10;17.80;;;;;;;13.98;100.00;99058.23;1653139;86;21144;-71
2022/01/06 03:05:52;;;;;;;28.87;19.33;;;;;;;13.91;100.00;99060.23;1702860;82;21189;-71
2022/01/06 03:08:22;;;;;;;26.93;18.70;;;;;;;13.80;100.00;99054.00;1727133;82;21094;-71
2022/01/06 03:10:49;;;;;;;27.63;17.20;;;;;;;13.86;100.00;99051.73;1691569;83;21688;-69
2022/01/06 03:13:17;;;;;;;26.90;18.63;;;;;;;13.87;100.00;99052.83;1692595;84;21269;-71
2022/01/06 03:15:44;;;;;;;31.80;20.37;;;;;;;13.90;100.00;99050.76;1706796;83;22330;-71
2022/01/06 03:18:12;;;;;;;54.80;31.07;;;;;;;13.96;100.00;99056.38;1689942;84;21202;-71
2022/01/06 03:20:39;;;;;;;41.43;23.73;;;;;;;14.16;100.00;99050.70;1696685;83;21799;-72
2022/01/06 03:23:05;;;;;;;52.23;28.90;;;;;;;14.30;100.00;99044.93;1703536;83;21124;-69
2022/01/06 03:25:32;;;;;;;33.90;23.60;;;;;;;14.59;100.00;99044.91;1726742;82;21945;-71
2022/01/06 03:28:01;;;;;;;29.73;19.60;;;;;;;14.45;100.00;99038.35;1696591;83;21329;-71
2022/01/06 03:30:31;;;;;;;29.13;19.17;;;;;;;14.74;100.00;99027.30;1693612;83;21503;-72
2022/01/06 03:32:57;;;;;;;29.37;17.53;;;;;;;15.23;97.82;99025.61;1704534;83;21249;-70
2022/01/06 03:35:25;;;;;;;28.73;17.30;;;;;;;14.34;100.00;99023.77;1729590;81;21256;-72
2022/01/06 03:37:51;;;;;;;29.85;18.82;;;;;;;14.36;100.00;99019.61;1729642;81;21393;-72
2022/01/06 03:40:20;;;;;;;28.02;17.67;;;;;;;12.88;100.00;99026.71;1726980;82;21798;-72
2022/01/06 03:42:47;;;;;;;28.43;18.40;;;;;;;12.70;100.00;99024.72;1730485;81;20995;-72
2022/01/06 03:45:16;;;;;;;28.65;17.95;;;;;;;12.78;100.00;99015.22;1690432;83;21125;-70
2022/01/06 03:47:45;;;;;;;29.00;19.60;;;;;;;12.71;100.00;99009.31;1692784;84;21061;-72
2022/01/06 03:50:13;;;;;;;25.30;17.57;;;;;;;12.78;100.00;99009.48;1695057;83;21825;-72
2022/01/06 03:52:43;;;;;;;26.27;16.97;;;;;;;12.65;100.00;99011.00;1706364;83;21798;-71
2022/01/06 03:55:14;;;;;;;28.23;17.13;;;;;;;12.77;100.00;99026.20;1690692;84;20920;-71
2022/01/06 03:57:42;;;;;;;29.07;18.57;;;;;;;12.72;100.00;99035.22;1696356;83;21901;-72
2022/01/06 04:00:18;;;;;;;26.20;17.57;;;;;;;12.85;100.00;99029.78;1705174;80;21247;31
2022/01/06 04:02:45;;;;;;;24.37;16.37;;;;;;;12.86;100.00;99020.90;1654335;85;21149;-71
2022/01/06 04:05:13;;;;;;;24.33;16.53;;;;;;;12.63;100.00;99035.28;1676944;84;21285;-68
2022/01/06 04:07:42;;;;;;;26.60;17.63;;;;;;;12.83;100.00;99034.94;1675311;84;21460;-71
2022/01/06 04:10:10;;;;;;;26.83;17.40;;;;;;;12.93;100.00;99043.54;1677220;84;22097;-72
2022/01/06 04:12:38;;;;;;;27.95;17.82;;;;;;;13.03;100.00;99025.44;1642067;86;21217;-71
2022/01/06 04:15:11;;;;;;;23.90;15.88;;;;;;;13.24;100.00;99032.73;1655707;85;21079;-71
2022/01/06 04:17:39;;;;;;;25.27;16.97;;;;;;;13.41;100.00;99037.24;1641865;86;21731;-71
2022/01/06 04:20:07;;;;;;;26.00;17.30;;;;;;;13.44;100.00;99040.71;1656223;85;21634;-72
2022/01/06 04:22:36;;;;;;;26.53;17.50;;;;;;;13.58;100.00;99048.08;1640785;86;21777;-72
2022/01/06 04:25:05;;;;;;;27.40;16.87;;;;;;;13.64;100.00;99048.98;1655773;85;21333;-72
2022/01/06 04:27:35;;;;;;;24.72;16.02;;;;;;;13.58;100.00;99048.08;1642702;86;21189;-70
2022/01/06 04:30:08;;;;;;;25.88;16.93;;;;;;;13.59;100.00;99054.11;1654296;85;21196;-72
2022/01/06 04:32:35;;;;;;;;;;;;;;;13.57;100.00;99049.63;1642441;87;21018;-71
2022/01/06 04:35:03;;;;;;;28.00;18.00;;;;;;;13.27;100.00;99055.03;1612822;87;20191;-72
2022/01/06 04:37:31;;;;;;;26.67;16.73;;;;;;;13.16;100.00;99059.22;1639974;87;21184;-72
2022/01/06 04:39:58;;;;;;;26.50;16.48;;;;;;;13.05;100.00;99060.81;1640105;86;21273;-72
2022/01/06 04:42:26;;;;;;;25.40;17.12;;;;;;;12.78;100.00;99065.70;1641353;86;21855;-72
2022/01/06 04:44:52;;;;;;;23.50;16.90;;;;;;;12.82;100.00;99061.61;1642418;86;21063;-70
2022/01/06 04:47:19;;;;;;;25.87;18.03;;;;;;;12.81;100.00;99060.02;1673656;84;21006;-70
2022/01/06 04:49:45;;;;;;;26.97;16.50;;;;;;;12.91;100.00;99066.77;1639715;87;21299;-70
2022/01/06 04:52:12;;;;;;;25.75;17.55;;;;;;;12.83;100.00;99071.04;1655712;85;21890;-70
2022/01/06 04:54:42;;;;;;;24.67;17.05;;;;;;;12.85;100.00;99073.45;1641747;86;21163;-71
2022/01/06 04:57:09;;;;;;;24.87;16.33;;;;;;;12.92;100.00;99071.52;1654822;85;21074;-71
2022/01/06 04:59:37;;;;;;;25.00;16.85;;;;;;;12.91;100.00;99064.67;1640804;86;21389;-71
2022/01/06 05:02:04;;;;;;;31.67;18.53;;;;;;;12.78;100.00;99065.70;1660729;85;21875;-70
2022/01/06 05:04:32;;;;;;;25.57;17.87;;;;;;;12.83;100.00;99070.24;1648770;85;21291;-71
2022/01/06 05:06:59;;;;;;;31.13;19.47;;;;;;;12.91;100.00;99072.52;1647994;86;21306;-71
2022/01/06 05:09:27;;;;;;;27.20;18.20;;;;;;;12.87;100.00;99066.16;1647793;86;21379;-70
2022/01/06 05:11:54;;;;;;;27.83;16.50;;;;;;;12.81;100.00;99060.02;1648581;86;21373;-71
2022/01/06 05:14:20;;;;;;;26.60;16.33;;;;;;;12.85;100.00;99058.55;1639260;86;21273;-70
2022/01/06 05:16:48;;;;;;;24.83;17.33;;;;;;;12.83;100.00;99064.50;1648583;85;21600;-70
2022/01/06 05:19:15;;;;;;;25.53;18.13;;;;;;;12.65;100.00;99065.90;1647778;86;21256;-70
2022/01/06 05:21:41;;;;;;;26.53;17.10;;;;;;;12.78;100.00;99059.16;1648349;86;21287;-71
2022/01/06 05:24:17;;;;;;;23.40;17.00;;;;;;;12.84;100.00;99054.34;1648753;85;21314;-70
2022/01/06 05:26:40;;;;;;;26.27;19.12;;;;;;;12.82;100.00;99057.69;1647510;86;22355;-70
2022/01/06 05:29:09;;;;;;;27.23;18.97;;;;;;;13.02;100.00;99055.23;1648281;86;21140;-69
2022/01/06 05:31:36;;;;;;;33.93;21.83;;;;;;;12.91;100.00;99058.13;1649032;85;21675;-71
2022/01/06 05:34:03;;;;;;;27.07;18.50;;;;;;;12.93;100.00;99058.72;1648881;86;21689;-70
2022/01/06 05:36:32;;;;;;;25.53;17.70;;;;;;;13.00;100.00;99055.48;1649058;85;21173;-70
2022/01/06 05:38:59;;;;;;;26.27;18.17;;;;;;;13.28;100.00;99050.87;1650941;85;21111;-70
2022/01/06 05:41:26;;;;;;;28.57;18.73;;;;;;;13.09;100.00;99061.16;1654732;85;21254;-71
2022/01/06 05:43:53;;;;;;;23.33;15.60;;;;;;;13.14;100.00;99069.10;1663962;85;21287;-74
2022/01/06 05:46:23;;;;;;;26.40;17.07;;;;;;;12.85;100.00;99067.70;1655743;85;21222;-71
2022/01/06 05:48:53;;;;;;;31.97;19.07;;;;;;;12.83;100.00;99063.70;1644832;86;21555;-71
2022/01/06 05:51:20;;;;;;;27.53;18.77;;;;;;;12.81;100.00;99067.87;1649286;85;21303;-69
2022/01/06 05:53:49;;;;;;;25.27;17.07;;;;;;;12.70;100.00;99067.34;1631678;86;21364;-70
2022/01/06 05:56:16;;;;;;;23.83;15.20;;;;;;;12.50;100.00;99066.84;1648095;86;21282;-70
2022/01/06 05:58:43;;;;;;;26.83;15.67;;;;;;;12.45;100.00;99062.80;1659797;85;21164;-71
2022/01/06 06:01:10;;;;;;;26.90;18.50;;;;;;;12.54;100.00;99066.67;1652890;85;21201;-69
2022/01/06 06:03:39;;;;;;;24.83;16.40;;;;;;;12.58;100.00;99070.46;1691151;84;21803;-71
2022/01/06 06:06:09;;;;;;;23.70;17.20;;;;;;;12.37;100.00;99074.38;1649246;84;21261;-71
2022/01/06 06:08:36;;;;;;;25.10;16.90;;;;;;;12.51;100.00;99080.22;1675747;84;21150;-71
2022/01/06 06:11:04;;;;;;;22.37;15.87;;;;;;;12.41;100.00;99080.23;1661859;84;21689;-71
2022/01/06 06:13:32;;;;;;;25.80;17.77;;;;;;;12.00;100.00;99084.13;1638388;85;21051;-71
2022/01/06 06:16:01;;;;;;;23.23;16.50;;;;;;;12.06;100.00;99088.48;1680174;84;22035;-70
2022/01/06 06:18:29;;;;;;;25.17;17.07;;;;;;;11.92;100.00;99083.41;1686892;84;21225;-71
2022/01/06 06:20:55;;;;;;;25.03;17.43;;;;;;;11.72;100.00;99087.27;1676087;84;21318;-70
2022/01/06 06:23:24;;;;;;;23.10;16.30;;;;;;;12.08;100.00;99089.04;1676793;84;21701;-70
2022/01/06 06:25:51;;;;;;;26.80;17.67;;;;;;;11.92;100.00;99086.53;1645314;85;21550;-71
2022/01/06 06:28:17;;;;;;;24.73;16.73;;;;;;;12.00;100.00;99083.61;1675108;84;21769;-71
2022/01/06 06:30:46;;;;;;;24.23;16.23;;;;;;;11.99;100.00;99083.33;1647371;85;21233;-70
2022/01/06 06:33:12;;;;;;;22.13;15.90;;;;;;;12.08;100.00;99079.89;1671633;84;21246;-71
2022/01/06 06:35:39;;;;;;;22.85;15.38;;;;;;;12.15;100.00;99076.69;1658914;84;21195;-70
2022/01/06 06:38:06;;;;;;;21.73;15.15;;;;;;;12.23;100.00;99082.91;1677328;84;21285;-68
2022/01/06 06:40:32;;;;;;;25.02;17.17;;;;;;;12.11;100.00;99085.98;1673774;84;21035;-70
2022/01/06 06:43:00;;;;;;;20.97;15.60;;;;;;;11.78;100.00;99077.23;1675027;84;21079;-72
2022/01/06 06:45:26;;;;;;;22.98;15.98;;;;;;;11.79;100.00;99075.72;1673216;84;21722;-71
2022/01/06 06:47:53;;;;;;;25.27;16.97;;;;;;;11.92;100.00;99074.27;1674945;84;21031;-71
2022/01/06 06:50:21;;;;;;;22.80;15.53;;;;;;;12.15;100.00;99079.30;1669709;84;21074;-71
2022/01/06 06:52:48;;;;;;;27.75;17.77;;;;;;;12.33;100.00;99072.72;1661264;84;21035;-69
2022/01/06 06:55:16;;;;;;;27.70;19.03;;;;;;;12.28;100.00;99079.13;1672286;84;21521;-70
2022/01/06 06:57:43;;;;;;;27.87;18.63;;;;;;;12.49;100.00;99071.27;1671863;84;21402;-70
2022/01/06 07:00:12;;;;;;;30.80;20.47;;;;;;;12.72;100.00;99069.20;1675558;84;22066;-71
2022/01/06 07:02:40;;;;;;;27.07;18.33;;;;;;;12.89;100.00;99068.05;1673508;84;21467;-70
2022/01/06 07:05:08;;;;;;;27.00;18.25;;;;;;;13.17;100.00;99063.42;1675934;84;21206;-70
2022/01/06 07:07:34;;;;;;;23.70;17.27;;;;;;;13.08;100.00;99068.73;1673102;84;21027;-68
2022/01/06 07:10:02;;;;;;;24.60;16.80;;;;;;;12.90;100.00;99066.50;1675632;84;21692;-71
2022/01/06 07:12:32;;;;;;;21.43;15.37;;;;;;;12.92;100.00;99067.59;1674100;84;20912;-69
2022/01/06 07:15:02;;;;;;;21.67;15.70;;;;;;;13.05;100.00;99067.87;1673928;84;21215;-69
2022/01/06 07:17:29;;;;;;;21.73;16.00;;;;;;;13.12;100.00;99073.78;1640688;86;21332;-70
2022/01/06 07:19:58;;;;;;;21.53;15.57;;;;;;;13.12;100.00;99064.63;1674131;84;21600;-71
2022/01/06 07:22:24;;;;;;;23.93;16.73;;;;;;;13.21;100.00;99072.92;1673106;84;21325;-70
2022/01/06 07:24:51;;;;;;;20.17;14.30;;;;;;;13.20;100.00;99067.41;1674747;84;21350;-69
2022/01/06 07:27:17;;;;;;;22.93;15.57;;;;;;;13.51;100.00;99074.11;1669482;84;21390;-68
2022/01/06 07:29:46;;;;;;;20.90;14.63;;;;;;;13.61;100.00;99088.20;1679365;84;21298;-71
2022/01/06 07:32:12;;;;;;;20.73;15.03;;;;;;;13.32;100.00;99084.71;1678789;84;21332;-71
2022/01/06 07:34:39;;;;;;;21.70;14.70;;;;;;;13.47;100.00;99087.37;1673634;84;21266;-71
2022/01/06 07:37:07;;;;;;;20.13;14.40;;;;;;;13.54;100.00;99089.36;1674727;84;21834;-70
2022/01/06 07:39:36;;;;;;;23.97;16.27;;;;;;;13.68;100.00;99091.22;1672882;84;21367;-72
2022/01/06 07:42:04;;;;;;;23.57;15.33;;;;;;;13.69;100.00;99087.05;1675510;84;21293;-71
2022/01/06 07:44:34;;;;;;;23.90;15.17;;;;;;;13.78;100.00;99092.19;1672586;85;21884;-72
2022/01/06 07:47:03;;;;;;;20.60;14.83;;;;;;;13.95;100.00;99103.27;1665210;84;21317;-70
2022/01/06 07:49:30;;;;;;;23.67;16.37;;;;;;;14.19;100.00;99100.03;1666589;84;21310;-70
2022/01/06 07:51:56;;;;;;;23.07;15.13;;;;;;;14.14;100.00;99122.23;1668779;84;21705;-71
2022/01/06 07:54:25;;;;;;;19.87;14.40;;;;;;;14.18;100.00;99122.83;1673501;84;21264;-70
2022/01/06 07:56:51;;;;;;;21.27;15.97;;;;;;;14.10;100.00;99129.23;1674837;84;21190;-71
2022/01/06 07:59:20;;;;;;;21.67;15.83;;;;;;;13.96;100.00;99119.26;1674533;84;21227;-69
2022/01/06 08:01:50;;;;;;;22.87;16.93;;;;;;;13.76;100.00;99115.73;1672703;84;21604;-71
2022/01/06 08:04:16;;;;;;;23.77;15.57;;;;;;;13.93;100.00;99111.86;1665551;84;21744;-70
2022/01/06 08:06:45;;;;;;;24.40;16.33;;;;;;;13.77;100.00;99114.70;1632582;86;21330;-72
2022/01/06 08:09:12;;;;;;;22.67;16.83;;;;;;;13.86;100.00;99108.05;1625190;86;21112;-70
2022/01/06 08:11:38;;;;;;;21.17;15.43;;;;;;;13.96;100.00;99107.47;1630839;86;22003;-71
2022/01/06 08:14:05;;;;;;;22.10;15.30;;;;;;;13.93;100.00;99110.55;1628423;86;21737;-71
2022/01/06 08:16:33;;;;;;;22.17;15.27;;;;;;;14.00;100.00;99116.45;1635551;86;21305;-71
2022/01/06 08:18:59;;;;;;;24.10;16.90;;;;;;;14.17;100.00;99118.63;1668345;84;21265;-71
2022/01/06 08:21:26;;;;;;;23.50;16.03;;;;;;;14.23;100.00;99122.13;1663923;84;21634;-70
2022/01/06 08:23:52;;;;;;;22.87;15.83;;;;;;;14.28;100.00;99111.23;1663828;84;21459;-69
2022/01/06 08:26:21;;;;;;;21.17;14.10;;;;;;;14.38;100.00;99118.98;1663036;84;21344;-71
2022/01/06 08:28:47;;;;;;;23.37;15.77;;;;;;;14.45;100.00;99123.56;1672456;84;21752;-72
2022/01/06 08:31:16;;;;;;;24.20;16.37;;;;;;;14.31;100.00;99123.84;1664262;84;21429;-69
2022/01/06 08:33:43;;;;;;;24.20;15.93;;;;;;;14.39;100.00;99123.19;1666941;84;21568;-70
2022/01/06 08:36:10;;;;;;;21.67;14.80;;;;;;;14.63;100.00;99119.98;1681508;84;22623;-69
2022/01/06 08:38:37;;;;;;;24.83;16.60;;;;;;;14.15;100.00;99118.05;1672419;84;21233;-70
2022/01/06 08:41:04;;;;;;;24.60;16.20;;;;;;;13.33;100.00;99115.60;1662823;84;21315;-70
2022/01/06 08:43:33;;;;;;;20.77;14.97;;;;;;;13.73;100.00;99115.67;1629482;86;21333;-70
2022/01/06 08:45:59;;;;;;;21.83;14.27;;;;;;;13.77;100.00;99114.18;1677522;84;22654;-71
2022/01/06 08:48:26;;;;;;;21.97;14.97;;;;;;;12.84;100.00;99103.21;1671697;84;21307;-71
2022/01/06 08:50:53;;;;;;;22.97;15.77;;;;;;;12.75;100.00;99103.27;1664013;84;21083;-71
2022/01/06 08:53:21;;;;;;;23.27;15.67;;;;;;;12.77;100.00;99102.55;1648197;85;21371;-71
2022/01/06 08:55:49;;;;;;;21.43;14.90;;;;;;;12.24;100.00;99115.88;1603105;87;21413;-70
2022/01/06 08:58:16;;;;;;;20.23;13.80;;;;;;;12.22;100.00;99110.05;1602998;88;21645;-73
2022/01/06 09:00:49;;;;;;;22.67;14.70;;;;;;;12.21;100.00;99098.53;1632328;86;21170;-74
2022/01/06 09:03:15;;;;;;;22.97;15.20;;;;;;;12.03;100.00;99091.53;1664506;84;21934;-73
2022/01/06 09:05:42;;;;;;;19.53;14.13;;;;;;;12.07;100.00;99088.76;1664977;84;21238;-71
2022/01/06 09:08:08;;;;;;;23.73;14.57;;;;;;;12.77;100.00;99082.42;1678075;84;21174;-73
2022/01/06 09:10:41;;;;;;;22.03;15.23;;;;;;;12.87;100.00;99089.17;1643299;85;21420;-70
2022/01/06 09:13:09;;;;;;;25.12;15.25;;;;;;;13.01;100.00;99083.22;1677734;84;21328;-71
2022/01/06 09:15:36;;;;;;;20.10;13.63;;;;;;;12.21;100.00;99088.88;1672585;84;21025;-71
2022/01/06 09:18:03;;;;;;;20.73;14.20;;;;;;;12.72;100.00;99082.28;1668850;84;21406;-73
2022/01/06 09:20:32;;;;;;;19.10;13.23;;;;;;;13.16;100.00;99084.08;1642196;85;21764;-72
2022/01/06 09:22:58;;;;;;;20.43;13.90;;;;;;;12.75;100.00;99093.60;1673538;84;21271;-72
2022/01/06 09:25:25;;;;;;;20.10;13.87;;;;;;;12.94;100.00;99088.28;1681309;84;21258;-71
2022/01/06 09:27:54;;;;;;;20.83;14.63;;;;;;;13.06;100.00;99089.86;1678567;84;21303;-69
2022/01/06 09:30:23;;;;;;;19.47;12.80;;;;;;;13.27;100.00;99078.59;1674032;84;21835;-70
2022/01/06 09:32:50;;;;;;;18.43;13.43;;;;;;;13.41;100.00;99073.40;1675465;84;21282;-72
2022/01/06 09:35:17;;;;;;;19.67;13.53;;;;;;;13.66;100.00;99079.65;1677750;84;21420;-71
2022/01/06 09:37:45;;;;;;;18.40;13.30;;;;;;;13.53;100.00;99086.47;1680634;84;21816;-69
2022/01/06 09:40:15;;;;;;;21.60;14.77;;;;;;;13.00;100.00;99086.08;1677913;84;21372;-71
2022/01/06 09:42:42;;;;;;;20.50;14.50;;;;;;;12.78;100.00;99087.92;1684590;84;21134;-72
2022/01/06 09:45:10;;;;;;;19.30;14.67;;;;;;;12.81;100.00;99088.79;1687381;84;21252;-72
2022/01/06 09:47:37;;;;;;;19.67;14.93;;;;;;;12.79;100.00;99088.20;1677148;84;21115;-71
2022/01/06 09:50:06;;;;;;;19.33;13.97;;;;;;;12.64;100.00;99092.55;1645264;85;22497;-72
2022/01/06 09:52:36;;;;;;;20.80;15.63;;;;;;;12.56;100.00;99093.40;1671226;84;21323;-70
2022/01/06 09:55:04;;;;;;;19.47;15.00;;;;;;;12.57;100.00;99090.55;1643904;85;21234;-71
2022/01/06 09:57:32;;;;;;;21.90;16.23;;;;;;;13.28;100.00;99082.27;1672145;84;21871;-70
2022/01/06 09:59:59;;;;;;;25.03;18.80;;;;;;;13.52;100.00;99070.45;1675453;84;21178;-71
2022/01/06 10:02:33;;;;;;;19.57;13.73;;;;;;;13.42;100.00;99065.03;1665438;84;22255;-70
2022/01/06 10:05:00;;;;;;;21.03;14.20;;;;;;;13.62;100.00;99082.45;1658643;84;21312;-70
2022/01/06 10:07:27;;;;;;;18.47;13.30;;;;;;;12.84;100.00;99085.73;1626480;86;21033;-69
2022/01/06 10:10:00;;;;;;;15.90;12.03;;;;;;;12.66;100.00;99093.66;1634610;84;21343;-69
2022/01/06 10:12:27;;;;;;;17.57;12.30;;;;;;;12.67;100.00;99087.40;1599722;88;22824;-73
2022/01/06 10:14:55;;;;;;;16.63;12.27;;;;;;;12.44;100.00;99090.76;1663969;84;21336;-70
2022/01/06 10:17:31;;;;;;;18.00;13.00;;;;;;;12.49;100.00;99096.62;1658117;84;21085;-68
2022/01/06 10:20:14;;;;;;;19.00;12.80;;;;;;;12.52;100.00;99096.18;1660954;84;21449;-71
2022/01/06 10:22:48;;;;;;;25.67;16.90;;;;;;;12.59;100.00;99083.81;1658020;85;21155;-73
2022/01/06 10:25:15;;;;;;;25.87;16.90;;;;;;;12.56;100.00;99079.81;1668719;84;21085;-69
2022/01/06 10:27:46;;;;;;;23.73;16.00;;;;;;;12.57;100.00;99067.02;1665219;84;21607;-72
2022/01/06 10:30:15;;;;;;;24.72;15.88;;;;;;;12.63;100.00;99065.34;1659813;84;21288;-71
2022/01/06 10:32:42;;;;;;;24.53;16.97;;;;;;;12.57;100.00;99068.33;1625919;88;20942;-71
2022/01/06 10:35:11;;;;;;;25.40;18.30;;;;;;;12.45;100.00;99062.80;1657471;85;21207;-70
2022/01/06 10:37:43;;;;;;;22.87;16.83;;;;;;;12.49;100.00;99071.78;1656250;86;21078;-72
2022/01/06 10:40:22;;;;;;;24.43;17.53;;;;;;;12.62;100.00;99075.01;1657143;85;21189;-71
2022/01/06 10:42:57;;;;;;;28.07;18.63;;;;;;;12.72;100.00;99070.52;1653322;86;21290;-71
2022/01/06 10:45:26;;;;;;;25.53;16.73;;;;;;;12.82;100.00;99069.45;1647630;86;21167;-72
2022/01/06 10:48:01;;;;;;;24.77;17.63;;;;;;;12.94;100.00;99066.84;1657627;86;21099;-72
2022/01/06 10:50:31;;;;;;;23.60;16.57;;;;;;;12.70;100.00;99063.94;1649504;86;21112;-72
2022/01/06 10:53:05;;;;;;;18.63;13.87;;;;;;;12.93;100.00;99067.08;1655874;86;22273;-73
2022/01/06 10:55:35;;;;;;;20.17;13.23;;;;;;;13.09;100.00;99069.00;1658258;85;21069;-72
2022/01/06 10:58:08;;;;;;;21.17;15.53;;;;;;;12.99;100.00;99067.46;1624778;88;21196;-72
2022/01/06 11:00:39;;;;;;;18.87;14.93;;;;;;;12.99;100.00;99070.08;1623608;87;21257;-71
2022/01/06 11:03:12;;;;;;;24.10;16.97;;;;;;;13.34;100.00;99066.18;1658984;85;22186;-73
2022/01/06 11:05:45;;;;;;;27.27;20.57;;;;;;;13.29;100.00;99069.46;1665012;84;21789;-73
2022/01/06 11:08:18;;;;;;;19.40;15.10;;;;;;;13.19;100.00;99070.55;1665539;84;21256;-69
2022/01/06 11:10:49;;;;;;;19.80;15.00;;;;;;;13.38;100.00;99066.80;1664663;84;21677;-70
2022/01/06 11:13:17;;;;;;;18.70;14.47;;;;;;;13.76;100.00;99061.52;1663480;84;22373;-72
2022/01/06 11:15:44;;;;;;;18.07;13.87;;;;;;;13.94;100.00;99059.25;1664515;84;21256;-69
2022/01/06 11:18:19;;;;;;;18.97;15.30;;;;;;;13.33;100.00;99052.30;1666076;85;21232;-71
2022/01/06 11:20:45;;;;;;;19.67;15.07;;;;;;;13.14;100.00;99058.64;1648649;86;21262;-72